createdAt,value
2023-10-17T00:00:28.648Z,72.67
2023-10-17T00:05:32.716Z,72.23
2023-10-17T00:10:41.449Z,70.93
2023-10-17T00:15:47.465Z,72.62
2023-10-17T00:20:52.593Z,72.05
2023-10-17T00:25:56.208Z,71.93
2023-10-17T00:31:01.136Z,71.25
2023-10-17T00:36:05.301Z,71.69
2023-10-17T00:41:10.786Z,71.53
2023-10-17T00:46:30.432Z,72.78
2023-10-17T00:51:41.096Z,71.18
2023-10-17T00:56:45.186Z,72.49
2023-10-17T01:01:50.220Z,72.66
2023-10-17T01:06:56.236Z,71.39
2023-10-17T01:12:00.585Z,72.00
2023-10-17T01:17:08.969Z,72.31
2023-10-17T01:22:12.481Z,70.99
2023-10-17T01:27:17.849Z,72.01
2023-10-17T01:32:23.557Z,72.94
2023-10-17T01:37:28.823Z,71.21
2023-10-17T01:42:34.564Z,72.13
2023-10-17T01:47:39.628Z,71.78
2023-10-17T01:52:44.172Z,72.11
2023-10-17T01:57:49.456Z,71.98
2023-10-17T02:02:53.360Z,71.47
2023-10-17T02:07:57.030Z,71.06
2023-10-17T02:13:05.634Z,70.30
2023-10-17T02:18:16.507Z,70.19
2023-10-17T02:23:27.544Z,71.23
2023-10-17T02:28:46.133Z,70.53
2023-10-17T02:33:49.708Z,71.01
2023-10-17T02:38:53.577Z,70.83
2023-10-17T02:43:58.953Z,71.25
2023-10-17T02:49:08.299Z,70.51
2023-10-17T02:54:15.008Z,69.86
2023-10-17T02:59:23.352Z,70.97
2023-10-17T03:04:27.561Z,70.54
2023-10-17T03:09:40.158Z,72.00
2023-10-17T03:14:58.895Z,71.30
2023-10-17T03:20:02.610Z,70.70
2023-10-17T03:25:20.038Z,71.32
2023-10-17T03:30:25.975Z,71.00
2023-10-17T03:35:31.272Z,71.65
2023-10-17T03:40:42.648Z,70.89
2023-10-17T03:45:53.744Z,70.76
2023-10-17T03:51:10.269Z,71.39
2023-10-17T03:56:21.565Z,70.69
2023-10-17T04:01:28.231Z,70.79
2023-10-17T04:06:40.688Z,71.31
2023-10-17T04:11:47.380Z,70.45
2023-10-17T04:16:54.229Z,70.55
2023-10-17T04:22:18.389Z,71.36
2023-10-17T04:27:32.331Z,70.48
2023-10-17T04:32:39.842Z,71.19
2023-10-17T04:37:46.427Z,72.13
2023-10-17T04:42:58.351Z,71.59
2023-10-17T04:48:14.000Z,72.63
2023-10-17T04:53:29.698Z,72.13
2023-10-17T04:58:41.084Z,72.46
2023-10-17T05:03:51.907Z,73.08
2023-10-17T05:14:43.849Z,74.54
2023-10-17T05:20:04.753Z,74.35
2023-10-17T05:25:26.243Z,74.77
2023-10-17T05:30:48.658Z,75.27
2023-10-17T05:36:09.632Z,76.03
2023-10-17T05:41:44.025Z,76.46
2023-10-17T05:47:07.015Z,76.03
2023-10-17T05:52:27.860Z,74.89
2023-10-17T05:57:57.259Z,74.66
2023-10-17T06:03:19.516Z,74.11
2023-10-17T06:08:40.658Z,74.46
2023-10-17T06:14:02.165Z,73.51
2023-10-17T06:19:10.396Z,70.46
2023-10-17T06:24:41.340Z,69.69
2023-10-17T06:30:02.247Z,69.31
2023-10-17T06:35:22.278Z,66.12
2023-10-17T06:40:31.982Z,65.21
2023-10-17T06:45:38.494Z,63.00
2023-10-17T06:51:01.209Z,63.15
2023-10-17T06:56:11.139Z,60.22
2023-10-17T07:01:28.035Z,59.92
2023-10-17T07:06:37.578Z,57.84
2023-10-17T07:11:44.975Z,56.82
2023-10-17T07:16:49.946Z,57.01
2023-10-17T07:21:58.778Z,55.46
2023-10-17T07:27:05.071Z,55.51
2023-10-17T07:32:16.710Z,54.65
2023-10-17T07:37:25.563Z,55.03
2023-10-17T07:42:32.703Z,52.34
2023-10-17T07:47:36.517Z,53.04
2023-10-17T07:52:45.089Z,52.72
2023-10-17T07:57:53.284Z,50.60
2023-10-17T08:02:59.798Z,51.36
2023-10-17T08:08:09.897Z,50.90
2023-10-17T08:13:13.749Z,49.92
2023-10-17T08:18:17.731Z,49.61
2023-10-17T08:23:24.321Z,49.11
2023-10-17T08:28:34.603Z,46.10
2023-10-17T08:33:42.147Z,45.18
2023-10-17T08:38:48.855Z,44.56
2023-10-17T08:43:54.609Z,45.59
2023-10-17T08:48:58.735Z,46.15
2023-10-17T08:54:06.420Z,45.53
2023-10-17T08:59:13.182Z,45.88
2023-10-17T09:04:19.838Z,45.58
2023-10-17T09:09:24.818Z,45.19
2023-10-17T09:14:30.565Z,44.94
2023-10-17T09:19:41.547Z,43.14
2023-10-17T09:24:51.191Z,41.92
2023-10-17T09:29:57.285Z,41.83
2023-10-17T09:35:05.299Z,42.02
2023-10-17T09:40:15.678Z,42.12
2023-10-17T09:50:27.334Z,42.17
2023-10-17T09:55:33.483Z,40.23
2023-10-17T10:00:42.473Z,38.14
2023-10-17T10:05:46.244Z,39.50
2023-10-17T10:10:53.867Z,39.17
2023-10-17T10:16:02.644Z,39.33
2023-10-17T10:21:08.819Z,41.78
2023-10-17T10:26:20.667Z,42.48
2023-10-17T10:31:40.031Z,43.88
2023-10-17T10:36:44.782Z,44.27
2023-10-17T10:42:01.805Z,44.04
2023-10-17T10:47:08.388Z,44.35
2023-10-17T10:52:12.256Z,43.84
2023-10-17T10:57:18.407Z,43.61
2023-10-17T11:02:22.590Z,44.78
2023-10-17T11:07:26.593Z,44.53
2023-10-17T11:12:31.667Z,45.30
2023-10-17T11:17:36.168Z,45.21
2023-10-17T11:22:42.120Z,45.91
2023-10-17T11:27:54.737Z,45.57
2023-10-17T11:33:03.630Z,45.58
2023-10-17T11:38:09.978Z,46.22
2023-10-17T11:43:20.145Z,46.62
2023-10-17T11:48:30.712Z,47.17
2023-10-17T11:53:34.714Z,48.11
2023-10-17T11:58:39.933Z,48.28
2023-10-17T12:03:43.570Z,48.17
2023-10-17T12:08:47.164Z,48.83
2023-10-17T12:13:52.113Z,49.06
2023-10-17T12:18:57.705Z,49.69
2023-10-17T12:24:01.958Z,50.18
2023-10-17T12:29:06.978Z,50.52
2023-10-17T12:34:10.819Z,52.33
2023-10-17T12:39:15.977Z,53.45
2023-10-17T12:44:21.021Z,53.71
2023-10-17T12:49:25.828Z,54.21
2023-10-17T12:54:29.830Z,54.02
2023-10-17T12:59:35.012Z,54.44
2023-10-17T13:04:38.717Z,54.05
2023-10-17T13:09:42.962Z,54.46
2023-10-17T13:14:47.877Z,54.18
2023-10-17T13:19:52.966Z,54.88
2023-10-17T13:24:56.685Z,55.30
2023-10-17T13:30:01.849Z,55.18
2023-10-17T13:35:09.383Z,55.43
2023-10-17T13:40:13.317Z,56.00
2023-10-17T13:45:18.536Z,56.39
2023-10-17T13:50:23.020Z,57.39
2023-10-17T13:55:27.627Z,57.88
2023-10-17T14:00:44.441Z,57.88
2023-10-17T14:05:49.036Z,58.37
2023-10-17T14:10:52.940Z,58.37
2023-10-17T14:15:58.753Z,58.76
2023-10-17T14:21:18.479Z,58.85
2023-10-17T14:26:22.294Z,59.44
2023-10-17T14:31:27.289Z,59.54
2023-10-17T14:36:31.076Z,60.27
2023-10-17T14:41:36.637Z,60.75
2023-10-17T14:46:41.576Z,60.23
2023-10-17T14:51:45.171Z,60.85
2023-10-17T14:56:48.757Z,61.08
2023-10-17T15:01:53.762Z,61.55
2023-10-17T15:06:57.586Z,61.81
2023-10-17T15:12:01.102Z,62.16
2023-10-17T15:17:06.633Z,62.76
2023-10-17T15:22:10.510Z,63.04
2023-10-17T15:27:15.749Z,63.21
2023-10-17T15:32:20.733Z,63.33
2023-10-17T15:37:24.218Z,63.82
2023-10-17T15:42:28.188Z,64.58
2023-10-17T15:47:33.348Z,64.43
2023-10-17T15:52:37.096Z,65.34
2023-10-17T15:57:41.777Z,65.21
2023-10-17T16:02:46.961Z,65.36
2023-10-17T16:07:50.668Z,65.61
2023-10-17T16:12:54.271Z,66.13
2023-10-17T16:17:59.172Z,66.01
2023-10-17T16:23:02.864Z,65.89
2023-10-17T16:28:06.886Z,66.39
2023-10-17T16:33:14.291Z,66.26
2023-10-17T16:38:17.846Z,66.29
2023-10-17T16:43:21.856Z,66.52
2023-10-17T16:48:28.201Z,66.44
2023-10-17T16:53:33.076Z,66.82
2023-10-17T16:58:39.387Z,67.28
2023-10-17T17:03:46.227Z,67.31
2023-10-17T17:08:50.636Z,67.42
2023-10-17T17:13:54.833Z,67.60
2023-10-17T17:19:00.982Z,67.75
2023-10-17T17:24:09.427Z,67.83
2023-10-17T17:29:13.168Z,67.80
2023-10-17T17:34:20.639Z,68.39
2023-10-17T17:39:25.566Z,68.26
2023-10-17T17:44:29.381Z,68.03
2023-10-17T17:49:34.719Z,67.97
2023-10-17T17:54:38.286Z,68.15
2023-10-17T17:59:42.721Z,68.00
2023-10-17T18:04:50.526Z,68.24
2023-10-17T18:09:54.185Z,68.43
2023-10-17T18:14:57.806Z,68.25
2023-10-17T18:20:02.709Z,68.49
2023-10-17T18:25:07.460Z,68.66
2023-10-17T18:30:12.594Z,68.69
2023-10-17T18:35:17.741Z,68.94
2023-10-17T18:40:22.151Z,68.82
2023-10-17T18:45:26.834Z,69.03
2023-10-17T18:50:33.106Z,69.14
2023-10-17T18:55:37.008Z,69.09
2023-10-17T19:00:43.437Z,68.87
2023-10-17T19:05:48.479Z,69.08
2023-10-17T19:10:54.039Z,69.17
2023-10-17T19:15:58.874Z,69.07
2023-10-17T19:21:06.403Z,69.20
2023-10-17T19:26:13.139Z,68.99
2023-10-17T19:31:18.301Z,69.34
2023-10-17T19:36:23.421Z,69.29
2023-10-17T19:41:27.058Z,68.90
2023-10-17T19:46:33.400Z,69.33
2023-10-17T19:51:39.497Z,69.40
2023-10-17T19:56:43.386Z,69.50
2023-10-17T20:01:46.948Z,69.51
2023-10-17T20:06:55.426Z,69.38
2023-10-17T20:12:00.321Z,69.32
2023-10-17T20:17:04.518Z,69.54
2023-10-17T20:22:11.657Z,69.67
2023-10-17T20:27:15.181Z,70.27
2023-10-17T20:32:22.572Z,70.59
2023-10-17T20:37:27.614Z,70.86
2023-10-17T20:42:31.137Z,70.60
2023-10-17T20:47:34.816Z,71.09
2023-10-17T20:52:39.937Z,71.08
2023-10-17T20:57:43.524Z,70.66
2023-10-17T21:02:47.302Z,70.54
2023-10-17T21:07:52.304Z,70.85
2023-10-17T21:12:56.222Z,70.83
2023-10-17T21:17:59.867Z,70.57
2023-10-17T21:23:05.125Z,70.54
2023-10-17T21:28:10.018Z,70.43
2023-10-17T21:33:13.549Z,70.32
2023-10-17T21:38:18.526Z,70.42
2023-10-17T21:43:22.051Z,70.62
2023-10-17T21:48:25.624Z,70.55
2023-10-17T21:53:30.745Z,70.64
2023-10-17T21:58:36.575Z,71.11
2023-10-17T22:03:42.898Z,71.30
2023-10-17T22:08:49.775Z,71.18
2023-10-17T22:13:53.425Z,71.53
2023-10-17T22:18:57.193Z,71.56
2023-10-17T22:24:02.930Z,71.52
2023-10-17T22:29:06.866Z,71.64
2023-10-17T22:34:10.997Z,71.66
2023-10-17T22:39:15.943Z,71.59
2023-10-17T22:44:19.484Z,72.06
2023-10-17T22:49:23.099Z,71.78
2023-10-17T22:54:29.514Z,71.98
2023-10-17T22:59:33.114Z,72.48
2023-10-17T23:04:36.601Z,72.29
2023-10-17T23:09:41.504Z,73.01
2023-10-17T23:14:45.334Z,72.70
2023-10-17T23:19:48.844Z,73.27
2023-10-17T23:24:53.771Z,73.34
2023-10-17T23:29:59.080Z,72.71
2023-10-17T23:35:04.104Z,72.77
2023-10-17T23:40:11.207Z,73.72
2023-10-17T23:45:16.807Z,74.55
2023-10-17T23:50:22.706Z,74.32
2023-10-17T23:55:27.635Z,73.94
